Terminal Aerodrome Forecast
Issued by NWS Twin Cities, MN

Home | Current Version | Previous Version | Text Only | Print | Product List | Glossary Off
Versions: 1 2 3 4 5 6 7 8 9 10 11 12 13

000
FTUS43 KMPX 032342
TAFEAU
TAF
KEAU 032342Z 0400/0424 30015KT P6SM BKN035
     FM040600 29012KT P6SM SKC
     FM041200 28008KT P6SM FEW250
     FM042000 29012G20KT P6SM BKN040=

USA.gov is the U.S. government's official web portal to all federal, state and local government web resources and services.